METAR Data
IDs: Format: Raw Decoded Include TAF

Data at: 1334 UTC 10 Aug 2022

KLGB 101253Z AUTO 24003KT 10SM CLR 22/18 A2996 RMK AO2 SLP146 T02220178
KLGB 101153Z AUTO 30003KT 10SM CLR 22/18 A2995 RMK AO2 SLP141 T02220178 10233 20222 56005
KLGB 101053Z AUTO 27003KT 10SM CLR 22/18 A2995 RMK AO2 SLP142 T02220178
KLGB 100953Z AUTO 16003KT 10SM CLR 22/18 A2995 RMK AO2 SLP141 T02220183
KLGB 100853Z AUTO 00000KT 10SM CLR 22/18 A2996 RMK AO2 SLP146 T02220183 55001
KLGB 100753Z AUTO 00000KT 10SM CLR 22/18 A2996 RMK AO2 SLP145 T02220183 403220222
KLGB 100653Z AUTO 19005KT 10SM CLR 23/18 A2996 RMK AO2 SLP145 T02280178
KLGB 100553Z 14004KT 10SM CLR 23/17 A2997 RMK AO2 SLP147 T02330167 10322 20233 51024
KLGB 100453Z 35003KT 10SM CLR 25/14 A2995 RMK AO2 SLP143 T02500144
KLGB 100353Z 32004KT 10SM CLR 26/15 A2993 RMK AO2 SLP133 T02560150
KLGB 100253Z 31007KT 10SM CLR 26/16 A2989 RMK AO2 SLP122 T02610156 53008
KLGB 100153Z 30009KT 10SM CLR 28/14 A2988 RMK AO2 SLP118 T02780144
KLGB 100053Z 29011KT 10SM CLR 29/14 A2987 RMK AO2 SLP115 T02940144
KLGB 092353Z 00000KT 10SM CLR 32/10 A2987 RMK AO2 SLP114 T03220100 10322 20278 56014
KLGB 092253Z 15008KT 10SM CLR 31/09 A2988 RMK AO2 SLP118 T03110089
KLGB 092153Z 19007KT 10SM CLR 31/09 A2989 RMK AO2 SLP122 T03110089
KLGB 092053Z 17007KT 10SM CLR 32/11 A2991 RMK AO2 SLP128 T03170106 58014
KLGB 091953Z VRB06KT 10SM CLR 30/13 A2993 RMK AO2 SLP134 T03000133
KLGB 091853Z 22004KT 10SM CLR 30/13 A2994 RMK AO2 SLP137 T03000133
KLGB 091753Z 21007KT 10SM CLR 28/16 A2995 RMK AO2 SLP141 T02830161 10283 20228 51006
KLGB 091653Z 20004KT 10SM CLR 27/17 A2994 RMK AO2 SLP139 T02670172
KLGB 091553Z 14004KT 10SM CLR 27/18 A2995 RMK AO2 SLP139 T02670178
KLGB 091453Z 11003KT 10SM CLR 24/18 A2993 RMK AO2 SLP135 T02440178 51013
KLGB 091353Z 00000KT 10SM CLR 23/17 A2992 RMK AO2 SLP132 T02280172
KLGB 091253Z AUTO 00000KT 10SM CLR 23/17 A2990 RMK AO2 SLP126 T02280172
KLGB 091153Z AUTO 00000KT 10SM CLR 23/17 A2989 RMK AO2 SLP122 T02280172 10233 20222 56004
KLGB 091053Z AUTO 00000KT 10SM CLR 23/17 A2989 RMK AO2 SLP122 T02280167
KLGB 090953Z AUTO 00000KT 10SM CLR 23/17 A2989 RMK AO2 SLP122 T02280172
KLGB 090853Z AUTO 00000KT 10SM CLR 23/17 A2990 RMK AO2 SLP126 T02280172 58007
KLGB 090753Z AUTO 07003KT 10SM CLR 22/17 A2992 RMK AO2 SLP130 T02220172 402780200
KLGB 090653Z AUTO 12005KT 10SM CLR 22/17 A2993 RMK AO2 SLP135 T02220167
KLGB 090553Z AUTO 00000KT 10SM CLR 22/17 A2993 RMK AO2 SLP133 T02220172 10272 20222 50013
KLGB 090453Z 15004KT 10SM CLR 22/17 A2993 RMK AO2 SLP134 T02220172
KLGB 090353Z 16006KT 10SM CLR 22/17 A2991 RMK AO2 SLP129 T02220167
KLGB 090253Z 13008KT 10SM CLR 26/15 A2989 RMK AO2 SLP120 T02610150 53006
KLGB 090153Z 15006KT 10SM CLR 27/15 A2986 RMK AO2 SLP110 T02670150